sensor_id;sensor_type;location;lat;lon;timestamp;temperature;humidity
2945;DHT22;1482;51.398;7.128;2023-07-29T00:00:56;19.70;1.00
2945;DHT22;1482;51.398;7.128;2023-07-29T00:03:22;19.60;1.00
2945;DHT22;1482;51.398;7.128;2023-07-29T00:05:48;19.70;2.90
2945;DHT22;1482;51.398;7.128;2023-07-29T00:08:14;19.60;42.60
2945;DHT22;1482;51.398;7.128;2023-07-29T00:10:40;19.60;98.40
2945;DHT22;1482;51.398;7.128;2023-07-29T00:13:07;19.60;99.90
2945;DHT22;1482;51.398;7.128;2023-07-29T00:15:32;19.60;99.90
2945;DHT22;1482;51.398;7.128;2023-07-29T00:17:58;19.60;99.90
2945;DHT22;1482;51.398;7.128;2023-07-29T00:20:24;19.60;99.90
2945;DHT22;1482;51.398;7.128;2023-07-29T00:22:49;19.60;91.00
2945;DHT22;1482;51.398;7.128;2023-07-29T00:25:17;19.60;58.90
2945;DHT22;1482;51.398;7.128;2023-07-29T00:27:43;19.60;24.20
2945;DHT22;1482;51.398;7.128;2023-07-29T00:30:09;19.60;30.70
2945;DHT22;1482;51.398;7.128;2023-07-29T00:32:35;19.60;49.10
2945;DHT22;1482;51.398;7.128;2023-07-29T00:35:00;19.50;43.20
2945;DHT22;1482;51.398;7.128;2023-07-29T00:37:27;19.60;35.10
2945;DHT22;1482;51.398;7.128;2023-07-29T00:39:53;19.50;26.80
2945;DHT22;1482;51.398;7.128;2023-07-29T00:42:18;19.50;49.60
2945;DHT22;1482;51.398;7.128;2023-07-29T00:44:44;19.50;72.40
2945;DHT22;1482;51.398;7.128;2023-07-29T00:47:10;19.50;54.00
2945;DHT22;1482;51.398;7.128;2023-07-29T00:49:36;19.50;98.60
2945;DHT22;1482;51.398;7.128;2023-07-29T00:52:02;19.50;99.90
2945;DHT22;1482;51.398;7.128;2023-07-29T00:54:28;19.50;99.90
2945;DHT22;1482;51.398;7.128;2023-07-29T00:56:53;19.50;99.90
2945;DHT22;1482;51.398;7.128;2023-07-29T00:59:19;19.40;99.90
2945;DHT22;1482;51.398;7.128;2023-07-29T01:01:45;19.50;99.90
2945;DHT22;1482;51.398;7.128;2023-07-29T01:04:10;19.40;99.90
2945;DHT22;1482;51.398;7.128;2023-07-29T01:06:56;19.50;98.20
2945;DHT22;1482;51.398;7.128;2023-07-29T01:12:06;19.50;8.10
2945;DHT22;1482;51.398;7.128;2023-07-29T01:14:46;19.40;17.00
2945;DHT22;1482;51.398;7.128;2023-07-29T01:17:19;19.40;35.40
2945;DHT22;1482;51.398;7.128;2023-07-29T01:20:07;19.30;57.00
2945;DHT22;1482;51.398;7.128;2023-07-29T01:22:35;19.30;45.60
2945;DHT22;1482;51.398;7.128;2023-07-29T01:25:02;19.30;99.90
2945;DHT22;1482;51.398;7.128;2023-07-29T01:27:28;19.30;42.40
2945;DHT22;1482;51.398;7.128;2023-07-29T01:29:54;19.20;24.80
2945;DHT22;1482;51.398;7.128;2023-07-29T01:37:40;19.30;84.90
2945;DHT22;1482;51.398;7.128;2023-07-29T01:40:08;19.30;40.20
2945;DHT22;1482;51.398;7.128;2023-07-29T01:42:34;19.30;2.80
2945;DHT22;1482;51.398;7.128;2023-07-29T01:44:59;19.30;1.00
2945;DHT22;1482;51.398;7.128;2023-07-29T01:47:25;19.30;1.00
2945;DHT22;1482;51.398;7.128;2023-07-29T01:49:51;19.30;1.00
2945;DHT22;1482;51.398;7.128;2023-07-29T01:52:16;19.30;1.00
2945;DHT22;1482;51.398;7.128;2023-07-29T01:54:42;19.30;1.00
2945;DHT22;1482;51.398;7.128;2023-07-29T01:57:07;19.30;1.00
2945;DHT22;1482;51.398;7.128;2023-07-29T01:59:33;19.20;1.00
2945;DHT22;1482;51.398;7.128;2023-07-29T02:01:59;19.30;1.00
2945;DHT22;1482;51.398;7.128;2023-07-29T02:04:24;19.30;1.00
2945;DHT22;1482;51.398;7.128;2023-07-29T02:06:50;19.30;1.00
2945;DHT22;1482;51.398;7.128;2023-07-29T02:09:15;19.30;1.00
2945;DHT22;1482;51.398;7.128;2023-07-29T02:11:41;19.30;1.00
2945;DHT22;1482;51.398;7.128;2023-07-29T02:14:06;19.20;1.00
2945;DHT22;1482;51.398;7.128;2023-07-29T02:16:32;19.20;44.90
2945;DHT22;1482;51.398;7.128;2023-07-29T02:18:59;19.20;80.80
2945;DHT22;1482;51.398;7.128;2023-07-29T02:21:25;19.20;74.60
2945;DHT22;1482;51.398;7.128;2023-07-29T02:23:50;19.30;99.90
2945;DHT22;1482;51.398;7.128;2023-07-29T02:26:16;19.20;69.40
2945;DHT22;1482;51.398;7.128;2023-07-29T02:28:42;19.30;79.70
2945;DHT22;1482;51.398;7.128;2023-07-29T02:31:22;19.20;52.50
2945;DHT22;1482;51.398;7.128;2023-07-29T02:33:47;19.20;53.10
2945;DHT22;1482;51.398;7.128;2023-07-29T02:36:14;19.30;52.80
2945;DHT22;1482;51.398;7.128;2023-07-29T02:38:40;19.30;60.50
2945;DHT22;1482;51.398;7.128;2023-07-29T02:41:07;19.30;77.00
2945;DHT22;1482;51.398;7.128;2023-07-29T02:43:35;19.30;29.10
2945;DHT22;1482;51.398;7.128;2023-07-29T02:46:01;19.30;25.00
2945;DHT22;1482;51.398;7.128;2023-07-29T02:48:27;19.30;22.00
2945;DHT22;1482;51.398;7.128;2023-07-29T02:50:53;19.30;11.00
2945;DHT22;1482;51.398;7.128;2023-07-29T02:53:19;19.30;1.00
2945;DHT22;1482;51.398;7.128;2023-07-29T02:55:44;19.30;53.00
2945;DHT22;1482;51.398;7.128;2023-07-29T02:58:10;19.30;45.20
2945;DHT22;1482;51.398;7.128;2023-07-29T03:00:35;19.30;15.30
2945;DHT22;1482;51.398;7.128;2023-07-29T03:03:01;19.40;49.30
2945;DHT22;1482;51.398;7.128;2023-07-29T03:05:29;19.40;22.00
2945;DHT22;1482;51.398;7.128;2023-07-29T03:07:55;19.50;1.00
2945;DHT22;1482;51.398;7.128;2023-07-29T03:10:21;19.40;1.00
2945;DHT22;1482;51.398;7.128;2023-07-29T03:12:47;19.50;1.00
2945;DHT22;1482;51.398;7.128;2023-07-29T03:15:13;19.40;1.00
2945;DHT22;1482;51.398;7.128;2023-07-29T03:17:38;19.50;1.00
2945;DHT22;1482;51.398;7.128;2023-07-29T03:20:04;19.50;1.00
2945;DHT22;1482;51.398;7.128;2023-07-29T03:22:30;19.50;1.00
2945;DHT22;1482;51.398;7.128;2023-07-29T03:24:55;19.50;1.00
2945;DHT22;1482;51.398;7.128;2023-07-29T03:27:21;19.50;1.00
2945;DHT22;1482;51.398;7.128;2023-07-29T03:29:47;19.50;1.00
2945;DHT22;1482;51.398;7.128;2023-07-29T03:32:13;19.60;1.00
2945;DHT22;1482;51.398;7.128;2023-07-29T03:34:38;19.60;1.00
2945;DHT22;1482;51.398;7.128;2023-07-29T03:37:05;19.60;1.00
2945;DHT22;1482;51.398;7.128;2023-07-29T03:39:31;19.60;1.00
2945;DHT22;1482;51.398;7.128;2023-07-29T03:41:57;19.70;1.00
2945;DHT22;1482;51.398;7.128;2023-07-29T03:44:22;19.70;1.00
2945;DHT22;1482;51.398;7.128;2023-07-29T03:46:48;19.70;1.00
2945;DHT22;1482;51.398;7.128;2023-07-29T03:49:14;19.70;1.00
2945;DHT22;1482;51.398;7.128;2023-07-29T03:51:39;19.70;1.00
2945;DHT22;1482;51.398;7.128;2023-07-29T03:54:05;19.70;1.00
2945;DHT22;1482;51.398;7.128;2023-07-29T03:56:31;19.70;1.00
2945;DHT22;1482;51.398;7.128;2023-07-29T03:59:04;19.70;1.00
2945;DHT22;1482;51.398;7.128;2023-07-29T04:01:30;19.70;1.00
2945;DHT22;1482;51.398;7.128;2023-07-29T04:03:56;19.80;1.00
2945;DHT22;1482;51.398;7.128;2023-07-29T04:06:21;19.70;1.00
2945;DHT22;1482;51.398;7.128;2023-07-29T04:08:48;19.70;1.00
2945;DHT22;1482;51.398;7.128;2023-07-29T04:11:13;19.60;1.00
2945;DHT22;1482;51.398;7.128;2023-07-29T04:13:39;19.60;1.00
2945;DHT22;1482;51.398;7.128;2023-07-29T04:16:05;19.70;1.00
2945;DHT22;1482;51.398;7.128;2023-07-29T04:18:31;19.70;1.00
2945;DHT22;1482;51.398;7.128;2023-07-29T04:20:56;19.70;1.00
2945;DHT22;1482;51.398;7.128;2023-07-29T04:23:22;19.80;1.00
2945;DHT22;1482;51.398;7.128;2023-07-29T04:25:47;19.80;1.00
2945;DHT22;1482;51.398;7.128;2023-07-29T04:28:13;19.90;99.90
2945;DHT22;1482;51.398;7.128;2023-07-29T04:30:39;19.90;99.90
2945;DHT22;1482;51.398;7.128;2023-07-29T04:33:04;19.90;99.90
2945;DHT22;1482;51.398;7.128;2023-07-29T04:35:30;19.90;99.90
2945;DHT22;1482;51.398;7.128;2023-07-29T04:37:55;19.80;99.90
2945;DHT22;1482;51.398;7.128;2023-07-29T04:40:21;19.80;99.90
2945;DHT22;1482;51.398;7.128;2023-07-29T04:42:48;19.80;99.90
2945;DHT22;1482;51.398;7.128;2023-07-29T04:45:13;19.70;99.90
2945;DHT22;1482;51.398;7.128;2023-07-29T04:47:39;19.70;99.90
2945;DHT22;1482;51.398;7.128;2023-07-29T04:50:05;19.80;99.90
2945;DHT22;1482;51.398;7.128;2023-07-29T04:52:31;19.70;99.90
2945;DHT22;1482;51.398;7.128;2023-07-29T04:54:57;19.80;99.90
2945;DHT22;1482;51.398;7.128;2023-07-29T04:57:22;19.80;54.80
2945;DHT22;1482;51.398;7.128;2023-07-29T04:59:48;19.60;1.00
2945;DHT22;1482;51.398;7.128;2023-07-29T05:02:13;19.70;99.90
2945;DHT22;1482;51.398;7.128;2023-07-29T05:04:39;19.60;1.00
2945;DHT22;1482;51.398;7.128;2023-07-29T05:07:05;19.60;99.90
2945;DHT22;1482;51.398;7.128;2023-07-29T05:09:30;19.60;1.00
2945;DHT22;1482;51.398;7.128;2023-07-29T05:11:56;19.50;50.60
2945;DHT22;1482;51.398;7.128;2023-07-29T05:14:21;19.50;1.00
2945;DHT22;1482;51.398;7.128;2023-07-29T05:16:47;19.50;1.00
2945;DHT22;1482;51.398;7.128;2023-07-29T05:19:13;19.50;1.00
2945;DHT22;1482;51.398;7.128;2023-07-29T05:21:39;19.50;1.00
2945;DHT22;1482;51.398;7.128;2023-07-29T05:24:05;19.60;1.00
2945;DHT22;1482;51.398;7.128;2023-07-29T05:26:30;19.80;1.00
2945;DHT22;1482;51.398;7.128;2023-07-29T05:28:56;19.90;99.90
2945;DHT22;1482;51.398;7.128;2023-07-29T05:31:22;20.10;99.90
2945;DHT22;1482;51.398;7.128;2023-07-29T05:33:47;20.30;1.00
2945;DHT22;1482;51.398;7.128;2023-07-29T05:36:13;20.50;99.90
2945;DHT22;1482;51.398;7.128;2023-07-29T05:38:38;20.90;99.90
2945;DHT22;1482;51.398;7.128;2023-07-29T05:41:04;21.50;1.00
2945;DHT22;1482;51.398;7.128;2023-07-29T05:43:30;21.90;1.00
2945;DHT22;1482;51.398;7.128;2023-07-29T05:45:55;22.00;1.00
2945;DHT22;1482;51.398;7.128;2023-07-29T05:48:21;21.90;1.00
2945;DHT22;1482;51.398;7.128;2023-07-29T05:50:47;21.80;1.00
2945;DHT22;1482;51.398;7.128;2023-07-29T05:53:14;21.70;99.90
2945;DHT22;1482;51.398;7.128;2023-07-29T05:55:39;21.50;1.00
2945;DHT22;1482;51.398;7.128;2023-07-29T05:58:05;21.40;1.00
2945;DHT22;1482;51.398;7.128;2023-07-29T06:00:31;21.30;1.00
2945;DHT22;1482;51.398;7.128;2023-07-29T06:02:57;21.10;1.00
2945;DHT22;1482;51.398;7.128;2023-07-29T06:05:22;21.00;1.00
2945;DHT22;1482;51.398;7.128;2023-07-29T06:07:48;20.80;1.00
2945;DHT22;1482;51.398;7.128;2023-07-29T06:10:15;20.50;1.00
2945;DHT22;1482;51.398;7.128;2023-07-29T06:12:44;20.40;1.00
2945;DHT22;1482;51.398;7.128;2023-07-29T06:15:10;20.30;1.00
2945;DHT22;1482;51.398;7.128;2023-07-29T06:17:36;20.30;1.00
2945;DHT22;1482;51.398;7.128;2023-07-29T06:20:01;20.30;1.00
2945;DHT22;1482;51.398;7.128;2023-07-29T06:22:28;20.20;6.10
2945;DHT22;1482;51.398;7.128;2023-07-29T06:24:53;20.20;32.50
2945;DHT22;1482;51.398;7.128;2023-07-29T06:27:19;20.20;1.00
2945;DHT22;1482;51.398;7.128;2023-07-29T06:29:44;20.10;1.00
2945;DHT22;1482;51.398;7.128;2023-07-29T06:32:10;20.10;1.00
2945;DHT22;1482;51.398;7.128;2023-07-29T06:34:35;20.20;1.00
2945;DHT22;1482;51.398;7.128;2023-07-29T06:37:01;20.20;1.00
2945;DHT22;1482;51.398;7.128;2023-07-29T06:39:26;20.20;1.00
2945;DHT22;1482;51.398;7.128;2023-07-29T06:41:52;20.30;1.00
2945;DHT22;1482;51.398;7.128;2023-07-29T06:44:17;20.30;99.90
2945;DHT22;1482;51.398;7.128;2023-07-29T06:46:43;20.40;99.90
2945;DHT22;1482;51.398;7.128;2023-07-29T06:49:08;20.60;99.90
2945;DHT22;1482;51.398;7.128;2023-07-29T06:51:34;21.00;99.90
2945;DHT22;1482;51.398;7.128;2023-07-29T06:54:01;21.60;99.90
2945;DHT22;1482;51.398;7.128;2023-07-29T06:56:27;22.40;99.90
2945;DHT22;1482;51.398;7.128;2023-07-29T06:58:52;22.80;99.90
2945;DHT22;1482;51.398;7.128;2023-07-29T07:01:18;22.70;99.90
2945;DHT22;1482;51.398;7.128;2023-07-29T07:03:44;22.60;99.90
2945;DHT22;1482;51.398;7.128;2023-07-29T07:06:09;22.50;99.90
2945;DHT22;1482;51.398;7.128;2023-07-29T07:08:35;22.30;99.90
2945;DHT22;1482;51.398;7.128;2023-07-29T07:11:00;22.30;99.90
2945;DHT22;1482;51.398;7.128;2023-07-29T07:13:26;22.20;99.90
2945;DHT22;1482;51.398;7.128;2023-07-29T07:15:54;22.80;99.90
2945;DHT22;1482;51.398;7.128;2023-07-29T07:18:20;23.30;99.90
2945;DHT22;1482;51.398;7.128;2023-07-29T07:20:48;23.90;99.90
2945;DHT22;1482;51.398;7.128;2023-07-29T07:23:15;26.30;99.90
2945;DHT22;1482;51.398;7.128;2023-07-29T07:25:41;27.70;99.90
2945;DHT22;1482;51.398;7.128;2023-07-29T07:28:08;28.50;93.00
2945;DHT22;1482;51.398;7.128;2023-07-29T07:30:33;31.20;93.20
2945;DHT22;1482;51.398;7.128;2023-07-29T07:32:59;34.90;99.90
2945;DHT22;1482;51.398;7.128;2023-07-29T07:35:24;37.80;99.90
2945;DHT22;1482;51.398;7.128;2023-07-29T07:37:50;40.00;99.90
2945;DHT22;1482;51.398;7.128;2023-07-29T07:40:15;40.40;94.90
2945;DHT22;1482;51.398;7.128;2023-07-29T07:42:41;40.90;90.50
2945;DHT22;1482;51.398;7.128;2023-07-29T07:45:06;40.80;78.50
2945;DHT22;1482;51.398;7.128;2023-07-29T07:47:32;42.40;88.00
2945;DHT22;1482;51.398;7.128;2023-07-29T07:49:58;42.20;76.20
2945;DHT22;1482;51.398;7.128;2023-07-29T07:52:23;42.80;69.20
2945;DHT22;1482;51.398;7.128;2023-07-29T07:54:53;43.80;73.30
2945;DHT22;1482;51.398;7.128;2023-07-29T07:57:20;44.20;69.00
2945;DHT22;1482;51.398;7.128;2023-07-29T07:59:46;45.20;72.40
2945;DHT22;1482;51.398;7.128;2023-07-29T08:02:12;46.20;77.70
2945;DHT22;1482;51.398;7.128;2023-07-29T08:04:37;45.30;60.00
2945;DHT22;1482;51.398;7.128;2023-07-29T08:07:03;43.40;38.80
2945;DHT22;1482;51.398;7.128;2023-07-29T08:09:28;41.40;16.30
2945;DHT22;1482;51.398;7.128;2023-07-29T08:11:54;39.90;3.40
2945;DHT22;1482;51.398;7.128;2023-07-29T08:14:19;39.30;1.00
2945;DHT22;1482;51.398;7.128;2023-07-29T08:16:45;39.40;1.00
2945;DHT22;1482;51.398;7.128;2023-07-29T08:19:11;41.20;2.90
2945;DHT22;1482;51.398;7.128;2023-07-29T08:21:36;42.60;9.30
2945;DHT22;1482;51.398;7.128;2023-07-29T08:24:02;42.70;8.00
2945;DHT22;1482;51.398;7.128;2023-07-29T08:26:28;42.00;1.00
2945;DHT22;1482;51.398;7.128;2023-07-29T08:28:54;43.10;4.50
2945;DHT22;1482;51.398;7.128;2023-07-29T08:31:20;44.00;7.90
2945;DHT22;1482;51.398;7.128;2023-07-29T08:33:45;43.10;1.00
2945;DHT22;1482;51.398;7.128;2023-07-29T08:36:11;42.20;1.00
2945;DHT22;1482;51.398;7.128;2023-07-29T08:38:36;42.40;1.00
2945;DHT22;1482;51.398;7.128;2023-07-29T08:41:16;41.50;1.00
2945;DHT22;1482;51.398;7.128;2023-07-29T08:46:38;38.80;1.00
2945;DHT22;1482;51.398;7.128;2023-07-29T08:49:03;37.80;1.00
2945;DHT22;1482;51.398;7.128;2023-07-29T08:51:31;37.00;1.00
2945;DHT22;1482;51.398;7.128;2023-07-29T08:53:59;36.30;1.00
2945;DHT22;1482;51.398;7.128;2023-07-29T08:56:24;35.60;1.00
2945;DHT22;1482;51.398;7.128;2023-07-29T08:58:51;34.70;1.00
2945;DHT22;1482;51.398;7.128;2023-07-29T09:01:17;34.10;1.00
2945;DHT22;1482;51.398;7.128;2023-07-29T09:03:43;33.50;1.00
2945;DHT22;1482;51.398;7.128;2023-07-29T09:06:08;33.10;1.00
2945;DHT22;1482;51.398;7.128;2023-07-29T09:08:34;32.80;1.00
2945;DHT22;1482;51.398;7.128;2023-07-29T09:11:00;32.50;1.00
2945;DHT22;1482;51.398;7.128;2023-07-29T09:13:26;32.10;1.00
2945;DHT22;1482;51.398;7.128;2023-07-29T09:15:55;31.90;1.00
2945;DHT22;1482;51.398;7.128;2023-07-29T09:18:22;31.70;1.00
2945;DHT22;1482;51.398;7.128;2023-07-29T09:20:49;31.70;1.00
2945;DHT22;1482;51.398;7.128;2023-07-29T09:23:15;31.60;1.00
2945;DHT22;1482;51.398;7.128;2023-07-29T09:25:41;31.60;1.00
2945;DHT22;1482;51.398;7.128;2023-07-29T09:28:12;31.40;1.00
2945;DHT22;1482;51.398;7.128;2023-07-29T09:30:42;31.30;1.00
2945;DHT22;1482;51.398;7.128;2023-07-29T09:33:09;31.10;1.00
2945;DHT22;1482;51.398;7.128;2023-07-29T09:35:36;31.10;1.00
2945;DHT22;1482;51.398;7.128;2023-07-29T09:38:03;31.10;1.00
2945;DHT22;1482;51.398;7.128;2023-07-29T09:40:40;30.90;1.00
2945;DHT22;1482;51.398;7.128;2023-07-29T09:43:08;30.60;1.00
2945;DHT22;1482;51.398;7.128;2023-07-29T09:45:35;30.30;1.00
2945;DHT22;1482;51.398;7.128;2023-07-29T09:48:03;29.50;1.00
2945;DHT22;1482;51.398;7.128;2023-07-29T09:50:30;28.90;1.00
2945;DHT22;1482;51.398;7.128;2023-07-29T09:52:56;28.40;1.00
2945;DHT22;1482;51.398;7.128;2023-07-29T09:55:25;28.00;1.00
2945;DHT22;1482;51.398;7.128;2023-07-29T09:57:56;27.60;1.00
2945;DHT22;1482;51.398;7.128;2023-07-29T10:00:23;27.10;1.00
2945;DHT22;1482;51.398;7.128;2023-07-29T10:02:49;26.60;1.00
2945;DHT22;1482;51.398;7.128;2023-07-29T10:05:15;26.40;1.00
2945;DHT22;1482;51.398;7.128;2023-07-29T10:07:40;26.10;1.00
2945;DHT22;1482;51.398;7.128;2023-07-29T10:10:07;25.90;1.00
2945;DHT22;1482;51.398;7.128;2023-07-29T10:12:34;25.80;1.00
2945;DHT22;1482;51.398;7.128;2023-07-29T10:15:03;26.00;1.00
2945;DHT22;1482;51.398;7.128;2023-07-29T10:17:29;26.20;1.00
2945;DHT22;1482;51.398;7.128;2023-07-29T10:19:56;26.70;1.00
2945;DHT22;1482;51.398;7.128;2023-07-29T10:22:28;27.10;1.00
2945;DHT22;1482;51.398;7.128;2023-07-29T10:24:58;27.40;1.00
2945;DHT22;1482;51.398;7.128;2023-07-29T10:27:25;27.40;1.00
2945;DHT22;1482;51.398;7.128;2023-07-29T10:29:54;27.40;1.00
2945;DHT22;1482;51.398;7.128;2023-07-29T10:32:24;27.50;1.00
2945;DHT22;1482;51.398;7.128;2023-07-29T10:34:50;27.30;1.00
2945;DHT22;1482;51.398;7.128;2023-07-29T10:37:16;27.30;1.00
2945;DHT22;1482;51.398;7.128;2023-07-29T10:39:52;27.50;1.00
2945;DHT22;1482;51.398;7.128;2023-07-29T10:42:18;27.70;1.00
2945;DHT22;1482;51.398;7.128;2023-07-29T10:44:50;27.70;1.00
2945;DHT22;1482;51.398;7.128;2023-07-29T10:47:20;27.80;1.00
2945;DHT22;1482;51.398;7.128;2023-07-29T10:49:52;28.10;1.00
2945;DHT22;1482;51.398;7.128;2023-07-29T10:52:31;28.00;1.00
2945;DHT22;1482;51.398;7.128;2023-07-29T10:54:57;27.80;1.00
2945;DHT22;1482;51.398;7.128;2023-07-29T10:57:37;28.00;1.00
2945;DHT22;1482;51.398;7.128;2023-07-29T11:00:04;28.00;1.00
2945;DHT22;1482;51.398;7.128;2023-07-29T11:02:32;28.00;1.00
2945;DHT22;1482;51.398;7.128;2023-07-29T11:04:58;27.80;1.00
2945;DHT22;1482;51.398;7.128;2023-07-29T11:07:26;27.50;1.00
2945;DHT22;1482;51.398;7.128;2023-07-29T11:10:02;27.30;1.00
2945;DHT22;1482;51.398;7.128;2023-07-29T11:17:53;26.70;1.00
2945;DHT22;1482;51.398;7.128;2023-07-29T11:20:24;26.50;1.00
2945;DHT22;1482;51.398;7.128;2023-07-29T11:22:50;26.60;1.00
2945;DHT22;1482;51.398;7.128;2023-07-29T11:25:17;26.90;1.00
2945;DHT22;1482;51.398;7.128;2023-07-29T11:27:43;27.20;1.00
2945;DHT22;1482;51.398;7.128;2023-07-29T11:30:11;27.20;1.00
2945;DHT22;1482;51.398;7.128;2023-07-29T11:32:37;27.10;1.00
2945;DHT22;1482;51.398;7.128;2023-07-29T11:35:08;26.90;1.00
2945;DHT22;1482;51.398;7.128;2023-07-29T11:37:35;26.80;1.00
2945;DHT22;1482;51.398;7.128;2023-07-29T11:40:02;26.70;1.00
2945;DHT22;1482;51.398;7.128;2023-07-29T11:42:28;26.50;1.00
2945;DHT22;1482;51.398;7.128;2023-07-29T11:44:56;26.20;1.00
2945;DHT22;1482;51.398;7.128;2023-07-29T11:47:22;25.90;1.00
2945;DHT22;1482;51.398;7.128;2023-07-29T11:49:48;25.60;1.00
2945;DHT22;1482;51.398;7.128;2023-07-29T11:52:13;25.50;1.00
2945;DHT22;1482;51.398;7.128;2023-07-29T11:54:39;25.60;1.00
2945;DHT22;1482;51.398;7.128;2023-07-29T11:57:09;25.90;1.00
2945;DHT22;1482;51.398;7.128;2023-07-29T11:59:36;25.90;1.00
2945;DHT22;1482;51.398;7.128;2023-07-29T12:02:05;25.90;1.00
2945;DHT22;1482;51.398;7.128;2023-07-29T12:04:32;26.00;1.00
2945;DHT22;1482;51.398;7.128;2023-07-29T12:06:58;26.00;1.00
2945;DHT22;1482;51.398;7.128;2023-07-29T12:09:25;26.10;1.00
2945;DHT22;1482;51.398;7.128;2023-07-29T12:11:52;26.20;1.00
2945;DHT22;1482;51.398;7.128;2023-07-29T12:14:18;26.30;1.00
2945;DHT22;1482;51.398;7.128;2023-07-29T12:16:44;26.10;1.00
2945;DHT22;1482;51.398;7.128;2023-07-29T12:19:13;25.90;1.00
2945;DHT22;1482;51.398;7.128;2023-07-29T12:21:41;25.70;1.00
2945;DHT22;1482;51.398;7.128;2023-07-29T12:24:07;25.80;1.00
2945;DHT22;1482;51.398;7.128;2023-07-29T12:26:32;26.10;1.00
2945;DHT22;1482;51.398;7.128;2023-07-29T12:28:58;26.20;1.00
2945;DHT22;1482;51.398;7.128;2023-07-29T12:31:32;26.50;1.00
2945;DHT22;1482;51.398;7.128;2023-07-29T12:33:58;26.70;1.00
2945;DHT22;1482;51.398;7.128;2023-07-29T12:36:43;26.80;1.00
2945;DHT22;1482;51.398;7.128;2023-07-29T12:39:23;26.90;1.00
2945;DHT22;1482;51.398;7.128;2023-07-29T12:41:50;26.70;1.00
2945;DHT22;1482;51.398;7.128;2023-07-29T12:44:16;26.50;1.00
2945;DHT22;1482;51.398;7.128;2023-07-29T12:46:42;26.20;1.00
2945;DHT22;1482;51.398;7.128;2023-07-29T12:49:08;26.10;1.00
2945;DHT22;1482;51.398;7.128;2023-07-29T12:51:34;26.10;1.00
2945;DHT22;1482;51.398;7.128;2023-07-29T12:54:01;26.20;1.00
2945;DHT22;1482;51.398;7.128;2023-07-29T12:56:26;26.20;1.00
2945;DHT22;1482;51.398;7.128;2023-07-29T12:58:52;25.90;1.00
2945;DHT22;1482;51.398;7.128;2023-07-29T13:01:18;25.50;1.00
2945;DHT22;1482;51.398;7.128;2023-07-29T13:03:48;25.60;1.00
2945;DHT22;1482;51.398;7.128;2023-07-29T13:06:14;25.40;1.00
2945;DHT22;1482;51.398;7.128;2023-07-29T13:08:41;25.40;1.00
2945;DHT22;1482;51.398;7.128;2023-07-29T13:11:06;25.30;1.00
2945;DHT22;1482;51.398;7.128;2023-07-29T13:13:32;25.30;1.00
2945;DHT22;1482;51.398;7.128;2023-07-29T13:15:58;25.60;1.00
2945;DHT22;1482;51.398;7.128;2023-07-29T13:18:23;25.90;1.00
2945;DHT22;1482;51.398;7.128;2023-07-29T13:20:49;26.20;1.00
2945;DHT22;1482;51.398;7.128;2023-07-29T13:23:15;26.30;1.00
2945;DHT22;1482;51.398;7.128;2023-07-29T13:25:41;26.60;1.00
2945;DHT22;1482;51.398;7.128;2023-07-29T13:28:06;26.80;1.00
2945;DHT22;1482;51.398;7.128;2023-07-29T13:30:32;27.10;1.00
2945;DHT22;1482;51.398;7.128;2023-07-29T13:32:58;27.40;1.00
2945;DHT22;1482;51.398;7.128;2023-07-29T13:35:24;27.10;1.00
2945;DHT22;1482;51.398;7.128;2023-07-29T13:37:49;27.00;1.00
2945;DHT22;1482;51.398;7.128;2023-07-29T13:40:15;26.70;1.00
2945;DHT22;1482;51.398;7.128;2023-07-29T13:42:41;26.40;1.00
2945;DHT22;1482;51.398;7.128;2023-07-29T13:45:07;26.20;1.00
2945;DHT22;1482;51.398;7.128;2023-07-29T13:47:32;26.00;1.00
2945;DHT22;1482;51.398;7.128;2023-07-29T13:49:58;25.80;1.00
2945;DHT22;1482;51.398;7.128;2023-07-29T13:52:24;25.60;1.00
2945;DHT22;1482;51.398;7.128;2023-07-29T13:54:49;25.50;1.00
2945;DHT22;1482;51.398;7.128;2023-07-29T13:57:15;25.30;1.00
2945;DHT22;1482;51.398;7.128;2023-07-29T13:59:40;25.10;1.00
2945;DHT22;1482;51.398;7.128;2023-07-29T14:02:06;25.00;1.00
2945;DHT22;1482;51.398;7.128;2023-07-29T14:04:32;24.90;1.00
2945;DHT22;1482;51.398;7.128;2023-07-29T14:06:58;24.70;1.00
2945;DHT22;1482;51.398;7.128;2023-07-29T14:09:24;24.30;1.00
2945;DHT22;1482;51.398;7.128;2023-07-29T14:11:50;23.70;1.00
2945;DHT22;1482;51.398;7.128;2023-07-29T14:14:15;23.40;1.00
2945;DHT22;1482;51.398;7.128;2023-07-29T14:16:41;23.30;20.20
2945;DHT22;1482;51.398;7.128;2023-07-29T14:19:07;23.30;41.20
2945;DHT22;1482;51.398;7.128;2023-07-29T14:21:32;23.10;83.50
2945;DHT22;1482;51.398;7.128;2023-07-29T14:23:58;23.00;97.40
2945;DHT22;1482;51.398;7.128;2023-07-29T14:26:23;23.00;97.80
2945;DHT22;1482;51.398;7.128;2023-07-29T14:28:49;22.90;99.90
2945;DHT22;1482;51.398;7.128;2023-07-29T14:31:16;22.90;99.90
2945;DHT22;1482;51.398;7.128;2023-07-29T14:33:43;23.00;99.90
2945;DHT22;1482;51.398;7.128;2023-07-29T14:36:09;23.20;99.90
2945;DHT22;1482;51.398;7.128;2023-07-29T14:38:35;23.50;99.90
2945;DHT22;1482;51.398;7.128;2023-07-29T14:41:01;23.80;99.90
2945;DHT22;1482;51.398;7.128;2023-07-29T14:43:26;24.20;99.90
2945;DHT22;1482;51.398;7.128;2023-07-29T14:45:52;24.80;99.90
2945;DHT22;1482;51.398;7.128;2023-07-29T14:48:17;25.20;99.90
2945;DHT22;1482;51.398;7.128;2023-07-29T14:50:43;25.50;99.90
2945;DHT22;1482;51.398;7.128;2023-07-29T14:53:10;25.30;29.30
2945;DHT22;1482;51.398;7.128;2023-07-29T14:55:37;25.20;11.60
2945;DHT22;1482;51.398;7.128;2023-07-29T14:58:02;24.80;7.50
2945;DHT22;1482;51.398;7.128;2023-07-29T15:00:28;24.60;4.50
2945;DHT22;1482;51.398;7.128;2023-07-29T15:02:53;24.30;16.00
2945;DHT22;1482;51.398;7.128;2023-07-29T15:05:19;24.20;24.50
2945;DHT22;1482;51.398;7.128;2023-07-29T15:07:44;24.40;35.40
2945;DHT22;1482;51.398;7.128;2023-07-29T15:10:10;24.30;23.30
2945;DHT22;1482;51.398;7.128;2023-07-29T15:12:36;24.30;23.90
2945;DHT22;1482;51.398;7.128;2023-07-29T15:15:01;24.20;23.00
2945;DHT22;1482;51.398;7.128;2023-07-29T15:17:27;24.20;19.50
2945;DHT22;1482;51.398;7.128;2023-07-29T15:19:52;24.20;43.60
2945;DHT22;1482;51.398;7.128;2023-07-29T15:22:18;24.10;64.90
2945;DHT22;1482;51.398;7.128;2023-07-29T15:24:43;24.10;64.30
2945;DHT22;1482;51.398;7.128;2023-07-29T15:27:12;24.00;42.70
2945;DHT22;1482;51.398;7.128;2023-07-29T15:29:38;24.10;20.40
2945;DHT22;1482;51.398;7.128;2023-07-29T15:32:04;24.20;36.20
2945;DHT22;1482;51.398;7.128;2023-07-29T15:34:29;24.40;35.80
2945;DHT22;1482;51.398;7.128;2023-07-29T15:36:57;24.50;49.30
2945;DHT22;1482;51.398;7.128;2023-07-29T15:39:23;24.60;16.10
2945;DHT22;1482;51.398;7.128;2023-07-29T15:41:49;24.50;2.60
2945;DHT22;1482;51.398;7.128;2023-07-29T15:44:14;24.50;1.00
2945;DHT22;1482;51.398;7.128;2023-07-29T15:46:40;24.60;1.00
2945;DHT22;1482;51.398;7.128;2023-07-29T15:49:05;24.50;1.00
2945;DHT22;1482;51.398;7.128;2023-07-29T15:51:31;24.50;1.00
2945;DHT22;1482;51.398;7.128;2023-07-29T15:53:56;24.60;1.00
2945;DHT22;1482;51.398;7.128;2023-07-29T15:56:22;24.60;1.00
2945;DHT22;1482;51.398;7.128;2023-07-29T15:58:48;24.50;1.00
2945;DHT22;1482;51.398;7.128;2023-07-29T16:01:13;24.60;1.00
2945;DHT22;1482;51.398;7.128;2023-07-29T16:03:39;24.60;1.00
2945;DHT22;1482;51.398;7.128;2023-07-29T16:06:06;24.50;1.00
2945;DHT22;1482;51.398;7.128;2023-07-29T16:08:32;24.40;1.00
2945;DHT22;1482;51.398;7.128;2023-07-29T16:10:58;24.30;1.00
2945;DHT22;1482;51.398;7.128;2023-07-29T16:13:23;24.30;1.00
2945;DHT22;1482;51.398;7.128;2023-07-29T16:15:49;24.20;1.00
2945;DHT22;1482;51.398;7.128;2023-07-29T16:18:14;24.30;1.00
2945;DHT22;1482;51.398;7.128;2023-07-29T16:20:40;24.40;1.00
2945;DHT22;1482;51.398;7.128;2023-07-29T16:23:05;24.30;1.00